Time;durP1;ratioP1;P1;durP2;ratioP2;P2;SDS_P1;SDS_P2;PMS_P1;PMS_P2;Temp;Humidity;BMP_temperature;BMP_pressure;BME280_temperature;BME280_humidity;BME280_pressure;Samples;Min_cycle;Max_cycle;Signal;HPM_P1;HPM_P2
2022/05/30 00:01:15;;;;;;;19.80;11.50;;;;;;;15.20;82.13;93280.16;5106492;28;20024;-75
2022/05/30 00:03:41;;;;;;;19.05;12.25;;;;;;;15.21;82.27;93280.91;5106625;28;20024;-75
2022/05/30 00:06:09;;;;;;;19.45;11.32;;;;;;;15.21;82.04;93280.91;5106605;28;20031;-75
2022/05/30 00:08:34;;;;;;;21.55;11.10;;;;;;;15.22;81.99;93287.81;5106476;28;20047;-75
2022/05/30 00:11:04;;;;;;;16.90;11.48;;;;;;;15.16;81.89;93283.88;5106335;28;20029;-75
2022/05/30 00:13:31;;;;;;;20.88;11.23;;;;;;;15.16;82.10;93300.00;5106326;28;20031;-75
2022/05/30 00:15:56;;;;;;;20.92;11.35;;;;;;;15.14;82.60;93295.00;5106453;28;20043;-75
2022/05/30 00:18:21;;;;;;;15.85;11.32;;;;;;;15.13;82.40;93298.03;5088277;28;20024;-75
2022/05/30 00:20:48;;;;;;;16.25;11.20;;;;;;;15.15;82.82;93298.44;5106159;28;20322;-76
2022/05/30 00:23:14;;;;;;;23.02;13.18;;;;;;;15.15;82.80;93295.78;5106229;28;20035;-75
2022/05/30 00:25:43;;;;;;;18.60;9.82;;;;;;;15.01;82.29;93304.31;5106219;28;20024;-75
2022/05/30 00:28:09;;;;;;;22.50;10.75;;;;;;;14.86;82.12;93297.91;5106011;28;20089;-76
2022/05/30 00:30:35;;;;;;;17.27;10.23;;;;;;;14.74;82.45;93300.72;5106288;28;20024;-75
2022/05/30 00:33:00;;;;;;;17.05;10.65;;;;;;;14.73;82.82;93288.44;5106043;28;20200;-74
2022/05/30 00:35:26;;;;;;;25.00;10.65;;;;;;;14.70;83.25;93286.47;5105972;28;20024;-75
2022/05/30 00:37:51;;;;;;;16.52;10.05;;;;;;;14.69;82.73;93279.53;5106115;28;20078;-74
2022/05/30 00:40:17;;;;;;;13.02;8.48;;;;;;;14.68;82.37;93286.03;5105624;28;20035;-74
2022/05/30 00:42:42;;;;;;;14.32;9.70;;;;;;;14.67;82.03;93292.53;5105858;28;20016;-75
2022/05/30 00:45:09;;;;;;;17.13;8.02;;;;;;;14.64;82.09;93291.31;5105753;28;20028;-75
2022/05/30 00:47:35;;;;;;;15.95;8.73;;;;;;;14.58;82.09;93304.22;5105819;28;20020;-75
2022/05/30 00:50:01;;;;;;;20.83;8.55;;;;;;;14.56;82.28;93301.13;5105800;28;20207;-75
2022/05/30 00:52:31;;;;;;;14.98;8.88;;;;;;;14.60;82.72;93306.56;5105615;28;20223;-75
2022/05/30 00:55:03;;;;;;;18.08;8.60;;;;;;;14.62;81.88;93302.41;5104499;28;20090;-75
2022/05/30 00:57:31;;;;;;;22.27;11.43;;;;;;;14.63;82.00;93298.59;5105529;28;20203;-75
2022/05/30 00:59:59;;;;;;;26.17;14.55;;;;;;;14.65;82.16;93298.22;5105324;28;20141;-75
2022/05/30 01:02:30;;;;;;;21.73;12.88;;;;;;;14.69;81.88;93295.63;5105642;28;20024;-75
2022/05/30 01:07:41;;;;;;;29.77;14.13;;;;;;;14.69;81.81;93299.06;5105342;28;20030;-75
2022/05/30 01:10:10;;;;;;;26.23;15.93;;;;;;;14.70;81.46;93297.19;5105383;28;20210;-75
2022/05/30 01:12:37;;;;;;;30.20;16.70;;;;;;;14.71;81.05;93296.06;5105083;28;20318;-75
2022/05/30 01:15:05;;;;;;;30.33;16.33;;;;;;;14.72;80.96;93297.63;5105282;28;20028;-75
2022/05/30 01:17:31;;;;;;;24.98;16.35;;;;;;;14.70;81.04;93297.97;5105108;28;20052;-76
2022/05/30 01:20:16;;;;;;;30.17;15.45;;;;;;;14.69;80.18;93296.41;5105134;28;20058;-74
2022/05/30 01:23:10;;;;;;;23.75;15.38;;;;;;;14.66;80.10;93286.38;5105069;28;20023;-74
2022/05/30 01:25:45;;;;;;;27.52;16.23;;;;;;;14.64;80.14;93292.09;5104925;28;20020;-75
2022/05/30 01:28:29;;;;;;;25.40;16.58;;;;;;;14.64;80.18;93302.06;5086926;28;20024;-74
2022/05/30 01:30:54;;;;;;;35.70;17.58;;;;;;;14.60;80.13;93295.84;5105265;28;20015;-74
2022/05/30 01:33:20;;;;;;;35.47;17.73;;;;;;;14.57;80.14;93302.69;5104881;28;20027;-75
2022/05/30 01:35:45;;;;;;;30.38;16.02;;;;;;;14.56;80.19;93309.16;5104800;28;20278;-75
2022/05/30 01:38:11;;;;;;;32.28;17.33;;;;;;;14.53;80.20;93312.53;5104885;28;20012;-76
2022/05/30 01:40:36;;;;;;;30.58;19.23;;;;;;;14.53;80.23;93314.41;5104560;28;20028;-75
2022/05/30 01:43:02;;;;;;;30.23;16.98;;;;;;;14.49;79.85;93306.31;5104558;28;20044;-76
2022/05/30 01:45:28;;;;;;;31.48;16.02;;;;;;;14.46;80.11;93307.00;5104631;28;20080;-75
2022/05/30 01:47:54;;;;;;;28.63;17.15;;;;;;;14.42;79.60;93308.84;5104612;28;20016;-75
2022/05/30 01:50:22;;;;;;;26.33;16.00;;;;;;;14.39;79.83;93314.88;5104624;28;20015;-75
2022/05/30 01:52:48;;;;;;;31.30;16.08;;;;;;;14.38;79.47;93311.44;5104580;28;20026;-76
2022/05/30 01:55:14;;;;;;;21.17;13.00;;;;;;;14.34;79.14;93317.84;5104396;28;20346;-75
2022/05/30 01:57:39;;;;;;;22.92;14.07;;;;;;;14.30;79.49;93322.34;5104248;28;20315;-75
2022/05/30 02:00:07;;;;;;;27.65;12.65;;;;;;;14.28;79.37;93316.56;5104397;28;20023;-75
2022/05/30 02:02:34;;;;;;;18.20;11.63;;;;;;;14.23;79.03;93307.66;5104268;28;20196;-75
2022/05/30 02:05:00;;;;;;;18.60;11.35;;;;;;;14.21;78.82;93301.88;5104307;28;20050;-75
2022/05/30 02:07:26;;;;;;;27.85;12.70;;;;;;;14.18;78.93;93307.91;5104008;28;20019;-75
2022/05/30 02:09:52;;;;;;;18.88;11.23;;;;;;;14.17;78.97;93316.34;5104454;28;20012;-74
2022/05/30 02:12:17;;;;;;;22.88;10.88;;;;;;;14.15;78.99;93315.91;5104144;28;20040;-74
2022/05/30 02:14:44;;;;;;;22.73;11.15;;;;;;;14.13;79.08;93320.84;5104139;28;20035;-74
2022/05/30 02:17:10;;;;;;;19.88;12.32;;;;;;;14.11;79.00;93334.56;5103864;28;20023;-73
2022/05/30 02:19:41;;;;;;;24.00;11.93;;;;;;;14.11;79.27;93339.94;5103801;28;20020;-74
2022/05/30 02:22:10;;;;;;;24.65;11.73;;;;;;;14.08;79.51;93329.13;5103962;28;20020;-73
2022/05/30 02:24:36;;;;;;;19.40;12.27;;;;;;;14.09;79.74;93336.81;5103959;28;20046;-74
2022/05/30 02:27:02;;;;;;;20.95;10.55;;;;;;;14.08;79.69;93345.97;5103672;28;20047;-74
2022/05/30 02:29:28;;;;;;;20.25;10.25;;;;;;;14.07;79.48;93333.72;5103795;28;20196;-74
2022/05/30 02:31:53;;;;;;;16.70;9.40;;;;;;;14.05;79.52;93336.72;5103883;28;20020;-74
2022/05/30 02:37:03;;;;;;;19.17;10.82;;;;;;;14.03;79.90;93344.34;5103855;28;20029;-74
2022/05/30 02:39:29;;;;;;;27.23;10.18;;;;;;;14.00;79.92;93349.59;5103392;28;20311;-73
2022/05/30 02:41:55;;;;;;;22.50;12.70;;;;;;;13.99;80.15;93348.84;5063351;28;20060;-74
2022/05/30 02:44:23;;;;;;;18.45;12.55;;;;;;;14.01;80.17;93351.19;5063204;28;20021;-74
2022/05/30 02:46:50;;;;;;;21.27;13.25;;;;;;;14.04;80.41;93347.78;5063173;28;20032;-74
2022/05/30 02:49:16;;;;;;;25.98;12.63;;;;;;;14.04;80.27;93355.84;5063319;28;20088;-75
2022/05/30 02:51:42;;;;;;;20.17;12.93;;;;;;;14.04;80.29;93355.84;5063125;28;20024;-75
2022/05/30 02:54:08;;;;;;;26.65;13.15;;;;;;;14.01;79.95;93351.94;5063116;28;20024;-75
2022/05/30 02:56:34;;;;;;;23.42;12.45;;;;;;;14.02;80.12;93358.88;5063070;28;20016;-74
2022/05/30 02:59:01;;;;;;;22.75;12.85;;;;;;;14.01;80.05;93359.22;5063092;28;20040;-74
2022/05/30 03:01:27;;;;;;;27.35;12.63;;;;;;;13.97;80.05;93366.38;5063034;28;20044;-74
2022/05/30 03:03:53;;;;;;;24.70;13.13;;;;;;;13.96;80.00;93368.31;5062853;28;20017;-74
2022/05/30 03:06:20;;;;;;;25.33;13.20;;;;;;;13.94;79.84;93367.06;5062934;28;20025;-74
2022/05/30 03:08:45;;;;;;;29.08;13.55;;;;;;;13.91;79.75;93383.84;5062932;28;20033;-74
2022/05/30 03:11:11;;;;;;;24.77;13.35;;;;;;;13.90;79.90;93382.28;5062655;28;20013;-74
2022/05/30 03:13:37;;;;;;;28.70;13.52;;;;;;;13.87;79.62;93385.66;5062892;28;20025;-74
2022/05/30 03:16:04;;;;;;;21.83;13.15;;;;;;;13.88;79.55;93400.59;5062950;28;20096;-74
2022/05/30 03:18:30;;;;;;;18.88;11.52;;;;;;;13.81;79.89;93401.19;5062025;28;20060;-74
2022/05/30 03:20:55;;;;;;;20.13;12.38;;;;;;;13.74;79.09;93412.53;5062598;28;20031;-74
2022/05/30 03:23:21;;;;;;;18.77;10.70;;;;;;;13.70;78.65;93403.63;5062579;28;20025;-75
2022/05/30 03:25:47;;;;;;;19.73;12.18;;;;;;;13.69;79.10;93414.66;5062716;28;20211;-75
2022/05/30 03:28:13;;;;;;;16.75;8.02;;;;;;;13.69;79.05;93420.03;5062849;28;20020;-75
2022/05/30 03:30:38;;;;;;;22.63;9.18;;;;;;;13.70;78.99;93422.38;5062711;28;20016;-75
2022/05/30 03:33:05;;;;;;;18.73;9.60;;;;;;;13.74;79.45;93425.09;5062553;28;20021;-75
2022/05/30 03:35:31;;;;;;;21.08;9.68;;;;;;;13.78;79.31;93426.78;5062381;28;20036;-75
2022/05/30 03:37:56;;;;;;;15.15;8.13;;;;;;;13.84;78.91;93427.31;5062690;28;20033;-75
2022/05/30 03:40:22;;;;;;;17.70;9.68;;;;;;;13.87;79.21;93439.25;5068384;28;20326;-75
2022/05/30 03:42:47;;;;;;;24.15;10.43;;;;;;;13.91;79.51;93437.44;5081407;28;20024;-75
2022/05/30 03:45:13;;;;;;;18.90;10.40;;;;;;;13.99;79.74;93447.97;5082501;28;20028;-75
2022/05/30 03:47:44;;;;;;;19.67;9.88;;;;;;;14.04;79.61;93446.94;5082506;28;20358;-75
2022/05/30 03:50:12;;;;;;;21.52;11.63;;;;;;;14.12;79.65;93458.63;5082465;28;20037;-75
2022/05/30 03:52:38;;;;;;;24.80;11.98;;;;;;;14.21;79.58;93462.69;5082357;28;20021;-75
2022/05/30 03:55:12;;;;;;;17.92;9.95;;;;;;;14.33;79.19;93466.41;5082453;28;20045;-75
2022/05/30 03:57:40;;;;;;;17.30;9.52;;;;;;;14.37;78.07;93464.59;5082441;28;20048;-75
2022/05/30 04:00:08;;;;;;;15.52;8.23;;;;;;;14.37;77.39;93465.38;5082302;28;20227;-75
2022/05/30 04:02:33;;;;;;;15.45;7.28;;;;;;;14.43;76.36;93465.88;5082127;28;20286;-75
2022/05/30 04:04:58;;;;;;;17.77;7.60;;;;;;;14.46;76.25;93473.25;5082419;28;20024;-75
2022/05/30 04:07:24;;;;;;;14.40;6.63;;;;;;;14.45;76.04;93482.44;5082566;28;20107;-75
2022/05/30 04:09:49;;;;;;;22.75;6.78;;;;;;;14.48;76.48;93481.72;5082349;28;20027;-75
2022/05/30 04:12:20;;;;;;;8.68;5.18;;;;;;;14.46;75.63;93481.28;5082310;28;20035;-75
2022/05/30 04:14:51;;;;;;;10.30;4.82;;;;;;;14.47;75.72;93477.50;5082147;28;20028;-75
2022/05/30 04:17:16;;;;;;;8.00;4.95;;;;;;;14.48;75.05;93475.59;5082141;28;20047;-75
2022/05/30 04:19:42;;;;;;;12.75;4.53;;;;;;;14.52;74.18;93476.47;5082025;28;20025;-76
2022/05/30 04:22:07;;;;;;;9.60;4.50;;;;;;;14.53;74.18;93480.69;5082071;28;20016;-75
2022/05/30 04:24:32;;;;;;;12.20;5.80;;;;;;;14.53;74.64;93489.53;5081933;28;20218;-74
2022/05/30 04:26:58;;;;;;;10.25;4.05;;;;;;;14.56;74.57;93486.16;5082283;28;20021;-75
2022/05/30 04:29:23;;;;;;;10.43;4.88;;;;;;;14.56;72.85;93493.44;5083102;28;20342;-75
2022/05/30 04:31:49;;;;;;;9.73;4.45;;;;;;;14.52;73.67;93492.53;5085695;28;20042;-75
2022/05/30 04:34:14;;;;;;;10.43;4.72;;;;;;;14.49;74.33;93494.03;5085593;28;20016;-74
2022/05/30 04:36:40;;;;;;;9.00;4.60;;;;;;;14.56;74.81;93496.88;5085636;28;20215;-74
2022/05/30 04:39:05;;;;;;;14.80;5.05;;;;;;;14.65;74.98;93491.34;5085641;28;20275;-75
2022/05/30 04:41:30;;;;;;;13.02;5.13;;;;;;;14.72;74.70;93488.84;5102596;28;20044;-74
2022/05/30 04:43:59;;;;;;;11.50;6.30;;;;;;;14.80;75.28;93487.09;5105894;28;20321;-75
2022/05/30 04:46:24;;;;;;;10.05;5.88;;;;;;;14.92;75.16;93491.56;5105623;28;20043;-74
2022/05/30 04:48:50;;;;;;;13.98;6.70;;;;;;;15.01;75.23;93497.53;5105504;28;20039;-74
2022/05/30 04:51:16;;;;;;;12.65;6.72;;;;;;;15.13;74.87;93491.28;5105671;28;20097;-75
2022/05/30 04:53:41;;;;;;;16.35;7.53;;;;;;;15.21;74.86;93491.09;5105706;28;20024;-74
2022/05/30 04:56:07;;;;;;;17.10;7.20;;;;;;;15.35;75.47;93497.91;5105542;28;20022;-75
2022/05/30 04:58:34;;;;;;;17.75;6.95;;;;;;;15.44;75.40;93499.22;5105486;28;20095;-74
2022/05/30 05:01:02;;;;;;;12.13;7.43;;;;;;;15.53;74.90;93501.72;5105453;28;20020;-74
2022/05/30 05:03:29;;;;;;;14.63;8.10;;;;;;;15.61;74.55;93506.13;5105362;28;20016;-74
2022/05/30 05:06:09;;;;;;;16.88;7.93;;;;;;;15.74;75.00;93516.75;5105531;28;20280;-77
2022/05/30 05:08:51;;;;;;;14.32;7.07;;;;;;;15.84;75.86;93521.56;5105258;28;20047;-77
2022/05/30 05:11:21;;;;;;;17.52;7.55;;;;;;;15.97;73.77;93522.19;5087299;28;20095;-77
2022/05/30 05:13:47;;;;;;;12.55;7.13;;;;;;;16.07;72.71;93518.16;5105165;28;20615;-78
2022/05/30 05:16:14;;;;;;;12.10;7.22;;;;;;;16.18;71.77;93514.53;5105124;28;20044;-77
2022/05/30 05:18:40;;;;;;;14.15;7.13;;;;;;;16.24;71.41;93534.63;5105043;28;20030;-76
2022/05/30 05:21:06;;;;;;;22.33;8.38;;;;;;;16.30;71.73;93526.25;5104882;28;20326;-76
2022/05/30 05:23:31;;;;;;;15.00;7.35;;;;;;;16.40;72.18;93531.81;5105207;28;20024;-76
2022/05/30 05:25:57;;;;;;;13.48;7.88;;;;;;;16.47;70.22;93533.88;5104896;28;20031;-76
2022/05/30 05:28:24;;;;;;;15.63;8.63;;;;;;;16.45;68.79;93520.75;5104805;28;20398;-77
2022/05/30 05:30:49;;;;;;;15.40;6.93;;;;;;;16.54;69.49;93525.91;5104741;28;20306;-77
2022/05/30 05:33:18;;;;;;;11.20;7.63;;;;;;;16.64;69.55;93536.06;5104778;28;20039;-78
2022/05/30 05:35:45;;;;;;;17.75;8.98;;;;;;;16.30;67.65;93539.69;5104864;28;20218;-77
2022/05/30 05:38:12;;;;;;;16.55;8.18;;;;;;;16.35;67.48;93537.50;5104851;28;20027;-77
2022/05/30 05:40:39;;;;;;;15.20;8.18;;;;;;;16.27;67.69;93533.13;5103754;28;20040;-76
2022/05/30 05:43:04;;;;;;;23.35;9.65;;;;;;;16.32;67.92;93548.94;5104428;28;20121;-76
2022/05/30 05:45:33;;;;;;;17.67;9.35;;;;;;;16.31;69.01;93533.19;5104521;28;20020;-76
2022/05/30 05:47:58;;;;;;;14.77;9.65;;;;;;;16.39;69.66;93537.56;5104848;28;20051;-75
2022/05/30 05:50:24;;;;;;;21.80;9.30;;;;;;;16.47;70.10;93536.56;5104418;28;20016;-76
2022/05/30 05:52:52;;;;;;;16.67;10.00;;;;;;;16.41;68.29;93543.38;5104420;28;20036;-76
2022/05/30 05:55:17;;;;;;;17.27;9.77;;;;;;;16.42;68.00;93540.31;5104100;28;20019;-76
2022/05/30 05:57:43;;;;;;;25.25;10.20;;;;;;;16.46;69.39;93543.06;5104031;28;20091;-76
2022/05/30 06:00:09;;;;;;;17.88;10.18;;;;;;;16.54;69.69;93541.28;5104007;28;20028;-77
2022/05/30 06:02:34;;;;;;;30.42;11.68;;;;;;;16.57;68.47;93540.56;5104224;28;20024;-77
2022/05/30 06:05:01;;;;;;;24.33;10.90;;;;;;;16.67;69.06;93544.56;5104334;28;20035;-77
2022/05/30 06:07:26;;;;;;;22.35;11.20;;;;;;;16.79;68.49;93547.88;5103980;28;20101;-75
2022/05/30 06:09:52;;;;;;;17.67;11.32;;;;;;;16.94;68.55;93548.91;5103684;28;20043;-78
2022/05/30 06:12:18;;;;;;;29.05;11.85;;;;;;;17.01;67.35;93548.22;5103832;28;20035;-77
2022/05/30 06:14:44;;;;;;;24.52;11.57;;;;;;;17.06;67.74;93550.63;5103942;28;20063;-76
2022/05/30 06:17:09;;;;;;;21.70;12.32;;;;;;;17.11;69.05;93553.00;5103890;28;20045;-76
2022/05/30 06:19:35;;;;;;;21.23;11.27;;;;;;;17.18;67.78;93555.03;5103761;28;20368;-76
2022/05/30 06:22:00;;;;;;;26.48;12.60;;;;;;;17.17;67.36;93559.63;5103833;28;20024;-74
2022/05/30 06:24:25;;;;;;;26.08;13.05;;;;;;;17.15;67.66;93561.91;5103648;28;20218;-75
2022/05/30 06:26:51;;;;;;;21.33;10.93;;;;;;;17.21;67.38;93570.47;5103666;28;20020;-75
2022/05/30 06:29:17;;;;;;;18.40;11.07;;;;;;;17.23;65.76;93565.50;5103188;28;20036;-74
2022/05/30 06:31:42;;;;;;;20.25;10.90;;;;;;;17.21;65.52;93573.91;5103211;28;20024;-74
2022/05/30 06:34:08;;;;;;;20.70;11.80;;;;;;;17.25;66.25;93580.13;5103392;28;20020;-75
2022/05/30 06:36:34;;;;;;;18.20;12.07;;;;;;;17.48;67.43;93575.84;5103520;28;20111;-75
2022/05/30 06:39:00;;;;;;;28.95;11.35;;;;;;;17.76;66.46;93583.56;5103663;28;20024;-74
2022/05/30 06:41:30;;;;;;;21.17;10.63;;;;;;;17.80;65.64;93582.44;5103106;28;20116;-74
2022/05/30 06:44:04;;;;;;;18.95;10.52;;;;;;;17.87;64.56;93581.03;5103299;28;20024;-74
2022/05/30 06:46:31;;;;;;;22.98;11.13;;;;;;;17.87;65.43;93583.72;5103578;28;20228;-74
2022/05/30 06:48:56;;;;;;;26.05;10.88;;;;;;;17.92;65.45;93586.09;5103229;28;20247;-74
2022/05/30 06:51:25;;;;;;;20.50;12.27;;;;;;;17.96;65.71;93579.59;5103329;28;20012;-74
2022/05/30 06:53:51;;;;;;;24.60;11.85;;;;;;;18.00;65.14;93596.59;5102097;28;20020;-74
2022/05/30 06:56:25;;;;;;;18.25;11.45;;;;;;;18.08;65.84;93589.38;5103343;28;20016;-74
2022/05/30 06:58:51;;;;;;;25.20;11.13;;;;;;;18.26;65.55;93597.69;5103157;28;20032;-74
2022/05/30 07:01:18;;;;;;;25.85;11.23;;;;;;;18.46;64.28;93601.00;5103115;28;20038;-75
2022/05/30 07:03:47;;;;;;;20.33;11.23;;;;;;;18.61;62.82;93596.53;5102826;28;20035;-76
2022/05/30 07:06:18;;;;;;;22.10;10.32;;;;;;;18.73;63.24;93598.19;5102569;28;20026;-76
2022/05/30 07:08:46;;;;;;;17.90;11.45;;;;;;;18.72;62.05;93596.63;5103049;28;20306;-74
2022/05/30 07:11:12;;;;;;;18.95;11.43;;;;;;;18.65;62.43;93597.34;5103037;28;20057;-75
2022/05/30 07:13:38;;;;;;;23.48;11.40;;;;;;;18.65;62.74;93589.25;5102795;28;20020;-76
2022/05/30 07:16:03;;;;;;;23.42;11.27;;;;;;;18.69;62.65;93590.06;5103263;28;20104;-76
2022/05/30 07:18:29;;;;;;;20.13;11.13;;;;;;;18.88;62.67;93589.09;5103232;28;20048;-76
2022/05/30 07:21:00;;;;;;;22.98;9.98;;;;;;;18.93;62.56;93602.28;5102895;28;20039;-76
2022/05/30 07:23:26;;;;;;;15.18;10.50;;;;;;;19.01;62.15;93595.78;5102896;28;20031;-76
2022/05/30 07:26:01;;;;;;;19.63;10.85;;;;;;;19.06;61.94;93599.31;5102958;28;20024;-76
2022/05/30 07:28:29;;;;;;;22.60;11.07;;;;;;;19.14;61.05;93588.19;5102832;28;20016;-75
2022/05/30 07:30:55;;;;;;;19.20;11.43;;;;;;;19.19;61.09;93598.66;5102701;28;20371;-74
2022/05/30 07:33:21;;;;;;;20.45;11.27;;;;;;;19.12;61.85;93585.06;5102593;28;20091;-76
2022/05/30 07:35:47;;;;;;;20.52;10.63;;;;;;;19.02;61.46;93591.94;5102703;28;20241;-76
2022/05/30 07:38:12;;;;;;;17.60;10.13;;;;;;;18.97;62.65;93592.28;5102850;28;20012;-76
2022/05/30 07:40:37;;;;;;;22.58;9.73;;;;;;;19.06;62.18;93596.59;5102526;28;20043;-76
2022/05/30 07:43:03;;;;;;;21.00;9.77;;;;;;;19.19;62.33;93593.25;5102779;28;20023;-75
2022/05/30 07:45:28;;;;;;;17.42;11.73;;;;;;;19.30;62.03;93598.72;5102495;28;20020;-76
2022/05/30 07:47:54;;;;;;;20.90;10.88;;;;;;;19.36;62.13;93597.22;5102656;28;20070;-76
2022/05/30 07:50:20;;;;;;;15.63;10.30;;;;;;;19.45;62.28;93597.66;5102814;28;20062;-74
2022/05/30 07:52:45;;;;;;;15.38;10.20;;;;;;;19.57;62.44;93593.13;5102703;28;20061;-76
2022/05/30 07:55:11;;;;;;;24.10;10.93;;;;;;;19.68;62.06;93596.66;5102545;28;20028;-76
2022/05/30 07:57:52;;;;;;;26.90;11.82;;;;;;;19.68;61.26;93591.25;5102234;28;20436;-77
2022/05/30 08:00:19;;;;;;;19.17;11.00;;;;;;;19.62;60.20;93595.47;5102347;28;20035;-76
2022/05/30 08:02:44;;;;;;;17.40;10.90;;;;;;;19.58;62.01;93597.38;5102438;28;20058;-76
2022/05/30 08:05:13;;;;;;;21.13;10.60;;;;;;;19.56;62.30;93599.66;5104798;28;20023;-76
2022/05/30 08:07:39;;;;;;;20.60;11.07;;;;;;;19.56;61.41;93607.78;5106514;28;20043;-76
2022/05/30 08:10:06;;;;;;;19.42;10.93;;;;;;;19.63;61.54;93602.44;5106623;28;20008;-76
2022/05/30 08:12:32;;;;;;;18.35;10.93;;;;;;;19.68;60.44;93601.28;5106682;28;20040;-76
2022/05/30 08:14:58;;;;;;;28.92;10.70;;;;;;;19.71;60.97;93600.59;5106429;28;20038;-76
2022/05/30 08:17:23;;;;;;;20.13;10.38;;;;;;;19.71;59.17;93601.34;5106212;28;20020;-74
2022/05/30 08:19:49;;;;;;;17.98;9.50;;;;;;;19.78;59.97;93600.63;5106126;28;20200;-74
2022/05/30 08:22:14;;;;;;;17.45;8.65;;;;;;;19.88;60.14;93605.31;5106197;28;20035;-74
2022/05/30 08:24:43;;;;;;;20.08;9.25;;;;;;;20.08;60.02;93599.63;5106189;28;20024;-74
2022/05/30 08:27:09;;;;;;;20.92;10.20;;;;;;;20.20;58.83;93600.06;5105896;28;20265;-74
2022/05/30 08:29:35;;;;;;;20.27;8.98;;;;;;;20.22;57.77;93603.16;5105999;28;20024;-74
2022/05/30 08:32:00;;;;;;;16.38;9.40;;;;;;;20.19;57.98;93598.53;5106190;28;20348;-74
2022/05/30 08:34:26;;;;;;;19.67;8.35;;;;;;;20.30;57.96;93597.78;5087801;28;20016;-76
2022/05/30 08:36:52;;;;;;;17.20;9.20;;;;;;;20.49;56.09;93604.81;5105990;28;20070;-76
2022/05/30 08:42:03;;;;;;;17.73;8.10;;;;;;;20.48;57.37;93609.44;5106031;28;20051;-75
2022/05/30 08:44:32;;;;;;;18.13;9.45;;;;;;;20.44;57.23;93601.31;5105807;28;20023;-75
2022/05/30 08:47:12;;;;;;;14.70;8.15;;;;;;;20.39;57.57;93609.81;5105492;28;20020;-74
2022/05/30 08:49:46;;;;;;;15.35;7.43;;;;;;;20.55;57.04;93598.63;5105538;28;20180;-75
2022/05/30 08:52:41;;;;;;;16.83;8.68;;;;;;;20.64;56.58;93601.03;5105575;28;20024;-75
2022/05/30 08:55:20;;;;;;;17.50;7.40;;;;;;;20.74;55.56;93605.69;5105609;28;20020;-75
2022/05/30 08:58:06;;;;;;;16.13;8.75;;;;;;;20.75;54.43;93603.75;5105603;28;20027;-75
2022/05/30 09:00:41;;;;;;;17.63;7.38;;;;;;;20.70;54.35;93601.41;5105805;28;20133;-75
2022/05/30 09:03:14;;;;;;;17.77;7.07;;;;;;;20.73;54.29;93609.53;5105470;28;20096;-75
2022/05/30 09:05:50;;;;;;;14.07;6.97;;;;;;;20.75;53.78;93609.16;5105202;28;20047;-75
2022/05/30 09:08:48;;;;;;;14.95;6.80;;;;;;;20.76;54.97;93608.78;5105482;28;20024;-75
2022/05/30 09:11:14;;;;;;;15.02;7.85;;;;;;;20.78;54.39;93611.09;5105524;28;20020;-77
2022/05/30 09:13:48;;;;;;;12.82;6.85;;;;;;;20.80;53.89;93617.69;5105468;28;20256;-74
2022/05/30 09:16:16;;;;;;;10.82;7.10;;;;;;;20.72;53.75;93618.03;5104115;28;20036;-75
2022/05/30 09:18:46;;;;;;;11.90;6.90;;;;;;;20.76;54.46;93613.41;5105031;28;20366;-74
2022/05/30 09:21:17;;;;;;;11.43;6.95;;;;;;;20.93;55.00;93612.69;5105128;28;20035;-74
2022/05/30 09:23:43;;;;;;;17.63;8.20;;;;;;;21.13;54.85;93613.09;5105218;28;20042;-73
2022/05/30 09:26:37;;;;;;;14.73;6.88;;;;;;;21.36;53.02;93620.84;5104928;28;20341;-74
2022/05/30 09:29:06;;;;;;;10.20;6.35;;;;;;;21.43;52.78;93623.59;5102779;28;20330;-75
2022/05/30 09:31:52;;;;;;;13.00;6.75;;;;;;;21.40;52.51;93623.56;5104894;28;20069;-74
2022/05/30 09:34:35;;;;;;;13.73;7.88;;;;;;;21.38;53.25;93634.78;5104605;28;20028;-75
2022/05/30 09:37:00;;;;;;;14.20;6.57;;;;;;;21.32;52.17;93625.50;5104937;28;20023;-75
2022/05/30 09:39:25;;;;;;;23.35;7.55;;;;;;;21.33;53.27;93627.06;5104723;28;20065;-75
2022/05/30 09:42:01;;;;;;;13.82;6.57;;;;;;;21.39;53.01;93624.72;5104503;28;20108;-75
2022/05/30 09:44:42;;;;;;;15.90;7.45;;;;;;;21.42;53.98;93626.66;5104577;28;20023;-75
2022/05/30 09:47:17;;;;;;;14.07;7.15;;;;;;;21.31;52.71;93615.81;5104721;28;20039;-75
2022/05/30 09:49:48;;;;;;;10.73;6.95;;;;;;;21.46;54.64;93621.28;5104390;28;20230;-76
2022/05/30 09:52:33;;;;;;;12.55;7.07;;;;;;;21.55;54.10;93610.78;5104605;28;20099;-76
2022/05/30 09:55:01;;;;;;;17.13;8.45;;;;;;;21.63;53.20;93620.47;5104210;28;20027;-75
2022/05/30 09:57:40;;;;;;;14.45;7.57;;;;;;;21.67;52.44;93615.06;5104296;28;20293;-75
2022/05/30 10:00:13;;;;;;;11.75;6.95;;;;;;;21.69;51.81;93616.22;5104415;28;20125;-75
2022/05/30 10:02:41;;;;;;;10.57;6.40;;;;;;;21.70;53.05;93617.78;5104225;28;20114;-75
2022/05/30 10:05:27;;;;;;;12.25;7.10;;;;;;;21.76;53.83;93627.06;5104274;28;20047;-75
2022/05/30 10:08:05;;;;;;;15.55;7.30;;;;;;;21.82;52.60;93622.78;5104133;28;20023;-74
2022/05/30 10:10:46;;;;;;;11.57;7.00;;;;;;;21.74;52.37;93621.25;5104017;28;20347;-74
2022/05/30 10:13:12;;;;;;;14.30;6.87;;;;;;;21.72;52.13;93622.81;5104167;28;20019;-75
2022/05/30 10:15:41;;;;;;;18.40;7.95;;;;;;;21.75;53.96;93617.38;5103922;28;20046;-74
2022/05/30 10:18:23;;;;;;;14.88;6.88;;;;;;;21.80;52.63;93616.22;5104042;28;20084;-74
2022/05/30 10:20:52;;;;;;;12.35;8.00;;;;;;;21.86;52.22;93616.56;5103849;28;20031;-74
2022/05/30 10:29:50;;;;;;;29.02;11.05;;;;;;;22.21;50.11;93621.91;5104031;28;20273;-75
2022/05/30 10:32:58;;;;;;;68.43;17.65;;;;;;;22.26;49.01;93612.63;5103725;28;20125;-74
2022/05/30 10:35:36;;;;;;;23.80;7.25;;;;;;;22.43;50.19;93616.44;5103724;28;20028;-74
2022/05/30 10:38:04;;;;;;;8.68;5.88;;;;;;;22.49;49.57;93619.50;5103685;28;20099;-75
2022/05/30 10:40:45;;;;;;;10.52;6.95;;;;;;;22.52;50.05;93618.72;5103401;28;20036;-75
2022/05/30 10:43:21;;;;;;;13.88;5.80;;;;;;;22.52;47.83;93627.66;5103447;28;20095;-74
2022/05/30 10:45:49;;;;;;;15.57;6.22;;;;;;;22.54;49.77;93628.03;5103421;28;20222;-75
2022/05/30 10:48:37;;;;;;;11.35;6.05;;;;;;;22.51;49.58;93623.41;5103369;28;20087;-73
2022/05/30 10:51:22;;;;;;;9.73;5.22;;;;;;;22.74;47.27;93627.56;5103542;28;20012;-75
2022/05/30 10:53:54;;;;;;;11.00;5.68;;;;;;;22.56;47.30;93627.63;5085375;28;20059;-75
2022/05/30 10:56:49;;;;;;;11.73;5.93;;;;;;;22.60;47.81;93622.97;5103402;28;20326;-74
2022/05/30 10:59:37;;;;;;;15.63;5.97;;;;;;;22.76;47.57;93627.94;5100054;28;20035;-74
2022/05/30 11:02:12;;;;;;;13.30;6.32;;;;;;;22.99;47.26;93619.25;5103526;28;20099;-74
2022/05/30 11:04:40;;;;;;;12.38;5.43;;;;;;;23.11;47.73;93620.78;5103071;28;20031;-75
2022/05/30 11:07:23;;;;;;;11.68;5.82;;;;;;;23.20;47.50;93618.38;5103371;28;20024;-74
2022/05/30 11:10:15;;;;;;;24.52;6.22;;;;;;;23.17;47.92;93621.91;5102944;28;20032;-74
2022/05/30 11:12:46;;;;;;;15.02;5.85;;;;;;;23.27;47.55;93628.44;5100056;28;20036;-75
2022/05/30 11:15:14;;;;;;;12.17;5.43;;;;;;;23.31;45.56;93623.75;5103258;28;20019;-76
2022/05/30 11:17:53;;;;;;;15.85;5.68;;;;;;;23.26;48.00;93619.47;5102953;28;20326;-75
2022/05/30 11:20:23;;;;;;;13.20;5.07;;;;;;;23.27;46.33;93626.47;5102812;28;20349;-76
2022/05/30 11:22:52;;;;;;;12.38;5.55;;;;;;;23.38;45.91;93627.16;5103115;28;20249;-76
2022/05/30 11:25:44;;;;;;;13.45;5.47;;;;;;;23.21;46.29;93619.94;5103192;28;20020;-75
2022/05/30 11:28:21;;;;;;;10.75;5.28;;;;;;;23.38;47.47;93616.28;5103030;28;20043;-75
2022/05/30 11:30:57;;;;;;;15.25;6.07;;;;;;;23.56;46.19;93623.53;5102778;28;20106;-75
2022/05/30 11:33:35;;;;;;;14.75;5.60;;;;;;;23.71;45.24;93616.81;5102764;28;20043;-74
2022/05/30 11:36:25;;;;;;;17.75;5.70;;;;;;;23.70;45.88;93619.94;5102936;28;20219;-75
2022/05/30 11:39:00;;;;;;;16.52;6.10;;;;;;;23.69;45.62;93616.44;5102853;28;20069;-75
2022/05/30 11:41:55;;;;;;;12.13;5.85;;;;;;;23.78;45.26;93610.56;5106886;28;20050;-77
2022/05/30 11:44:37;;;;;;;11.73;5.15;;;;;;;23.98;44.64;93610.75;5089355;28;20016;-76
2022/05/30 11:47:21;;;;;;;10.52;5.70;;;;;;;23.93;43.38;93603.03;5107076;28;20024;-77